Time;durP1;ratioP1;P1;durP2;ratioP2;P2;SDS_P1;SDS_P2;PMS_P1;PMS_P2;Temp;Humidity;BMP_temperature;BMP_pressure;BME280_temperature;BME280_humidity;BME280_pressure;Samples;Min_cycle;Max_cycle;Signal;HPM_P1;HPM_P2
2022/01/27 00:00:38;;;;;;;30.48;15.93;;;3.40;99.90;;;;;;5115659;28;20168;-52
2022/01/27 00:05:52;;;;;;;31.95;15.73;;;3.30;99.90;;;;;;5115215;28;20528;-52
2022/01/27 00:08:25;;;;;;;31.80;16.65;;;3.40;99.90;;;;;;5115429;28;20176;-49
2022/01/27 00:10:54;;;;;;;42.85;19.85;;;3.40;99.90;;;;;;5115375;28;20173;-48
2022/01/27 00:13:27;;;;;;;35.85;18.10;;;3.40;99.90;;;;;;5114826;28;20583;-48
2022/01/27 00:18:41;;;;;;;28.73;15.23;;;3.30;99.90;;;;;;5115205;28;20179;-48
2022/01/27 00:21:06;;;;;;;28.02;15.50;;;3.30;99.90;;;;;;5115232;28;20177;-48
2022/01/27 00:23:33;;;;;;;33.33;14.88;;;3.20;99.90;;;;;;5115108;28;20197;-48
2022/01/27 00:25:58;;;;;;;27.05;12.27;;;3.30;99.90;;;;;;5115150;28;20196;-51
2022/01/27 00:28:24;;;;;;;28.02;11.52;;;3.20;99.90;;;;;;5114785;28;20199;-52
2022/01/27 00:30:49;;;;;;;36.97;17.67;;;3.20;99.90;;;;;;5114719;28;20616;-51
2022/01/27 00:33:15;;;;;;;34.03;15.50;;;3.10;99.90;;;;;;5114694;28;20156;-52
2022/01/27 00:35:40;;;;;;;31.52;14.75;;;3.10;99.90;;;;;;5114647;28;20213;-53
2022/01/27 00:38:06;;;;;;;37.03;18.60;;;3.10;99.90;;;;;;5114626;28;20161;-51
2022/01/27 00:40:31;;;;;;;34.33;16.10;;;3.10;99.90;;;;;;5114634;28;20206;-50
2022/01/27 00:42:57;;;;;;;38.50;15.88;;;3.10;99.90;;;;;;5114893;28;20524;-53
2022/01/27 00:45:25;;;;;;;36.42;14.75;;;3.10;99.90;;;;;;5114649;28;20239;-51
2022/01/27 00:47:51;;;;;;;27.35;13.30;;;3.20;99.90;;;;;;5114277;28;20264;-51
2022/01/27 00:50:18;;;;;;;37.50;16.23;;;3.20;99.90;;;;;;5114338;28;20196;-53
2022/01/27 00:52:51;;;;;;;30.15;14.05;;;3.10;99.90;;;;;;5114497;28;20172;-53
2022/01/27 00:55:17;;;;;;;41.42;19.20;;;3.10;99.90;;;;;;5114520;28;20172;-53
2022/01/27 01:00:36;;;;;;;30.45;13.25;;;3.10;99.90;;;;;;5114433;28;20167;-53
2022/01/27 01:03:10;;;;;;;34.60;15.30;;;3.10;99.90;;;;;;5114359;28;20247;-51
2022/01/27 01:06:08;;;;;;;45.00;21.13;;;3.10;99.90;;;;;;5114274;28;20221;-54
2022/01/27 01:09:32;;;;;;;37.63;14.25;;;3.10;99.90;;;;;;5114251;28;20173;-53
2022/01/27 01:33:10;;;;;;;37.03;15.85;;;3.10;99.90;;;;;;5113718;28;20647;-53
2022/01/27 01:35:50;;;;;;;35.97;15.90;;;3.10;99.90;;;;;;5113513;28;20508;-53
2022/01/27 01:38:18;;;;;;;42.28;18.27;;;3.10;99.90;;;;;;5113343;28;20160;-52
2022/01/27 01:40:50;;;;;;;43.08;17.92;;;3.10;99.90;;;;;;5113475;28;20260;-53
2022/01/27 01:43:16;;;;;;;47.83;18.40;;;3.10;99.90;;;;;;5113292;28;20165;-52
2022/01/27 01:45:42;;;;;;;40.78;17.75;;;3.10;99.90;;;;;;5113546;28;20177;-50
2022/01/27 01:48:08;;;;;;;35.47;15.88;;;3.10;99.90;;;;;;5113181;28;20200;-51
2022/01/27 01:50:34;;;;;;;41.65;18.30;;;3.20;99.90;;;;;;5113152;28;20194;-53
2022/01/27 01:53:00;;;;;;;45.20;18.60;;;3.20;99.90;;;;;;5113442;28;20164;-53
2022/01/27 01:55:26;;;;;;;36.55;14.95;;;3.10;99.90;;;;;;5113038;28;20176;-53
2022/01/27 01:57:52;;;;;;;40.22;16.67;;;3.10;99.90;;;;;;5113287;28;20212;-52
2022/01/27 02:00:18;;;;;;;41.35;15.80;;;3.10;99.90;;;;;;5112934;28;20639;-53
2022/01/27 02:02:44;;;;;;;35.72;16.63;;;3.20;99.90;;;;;;5112889;28;20213;-53
2022/01/27 02:05:10;;;;;;;39.72;15.63;;;3.20;99.90;;;;;;5113000;28;20564;-53
2022/01/27 02:08:12;;;;;;;33.38;15.00;;;3.20;99.90;;;;;;5113112;28;20179;-53
2022/01/27 02:19:14;;;;;;;31.13;13.68;;;3.20;99.90;;;;;;5112989;28;20207;-54
2022/01/27 02:21:48;;;;;;;33.08;15.32;;;3.20;99.90;;;;;;5112715;28;20620;-53
2022/01/27 02:24:15;;;;;;;37.83;15.60;;;3.30;99.90;;;;;;5112602;28;20710;-52
2022/01/27 02:26:42;;;;;;;27.48;12.32;;;3.20;99.90;;;;;;5112871;28;20507;-53
2022/01/27 02:29:08;;;;;;;38.58;16.70;;;3.20;99.90;;;;;;5112773;28;20214;-53
2022/01/27 02:31:33;;;;;;;27.65;12.82;;;3.30;99.90;;;;;;5112621;28;20165;-53
2022/01/27 02:34:00;;;;;;;27.83;12.90;;;3.20;99.90;;;;;;5112893;28;20211;-52
2022/01/27 02:36:26;;;;;;;37.38;14.73;;;3.30;99.90;;;;;;5112469;28;20661;-52
2022/01/27 02:38:52;;;;;;;29.95;12.93;;;3.20;99.90;;;;;;5112461;28;20167;-52
2022/01/27 02:41:21;;;;;;;35.35;15.75;;;3.20;99.90;;;;;;5112144;28;20255;-51
2022/01/27 02:43:47;;;;;;;33.35;14.43;;;3.30;99.90;;;;;;5112356;28;20192;-53
2022/01/27 02:46:20;;;;;;;39.33;16.45;;;3.20;99.90;;;;;;5112400;28;20255;-53
2022/01/27 02:48:46;;;;;;;43.65;18.83;;;3.30;99.90;;;;;;5112311;28;20187;-53
2022/01/27 02:51:11;;;;;;;40.15;16.02;;;3.30;99.90;;;;;;5112450;28;20617;-52
2022/01/27 02:53:37;;;;;;;28.88;14.13;;;3.30;99.90;;;;;;5112362;28;20173;-52
2022/01/27 02:56:03;;;;;;;38.38;16.67;;;3.20;99.90;;;;;;5112357;28;20681;-52
2022/01/27 02:58:28;;;;;;;31.48;13.50;;;3.20;99.90;;;;;;5112553;28;20251;-52
2022/01/27 03:00:54;;;;;;;32.03;13.85;;;3.20;99.90;;;;;;5112310;28;20238;-51
2022/01/27 03:03:19;;;;;;;31.67;14.00;;;3.20;99.90;;;;;;5112190;28;20180;-52
2022/01/27 03:05:45;;;;;;;27.92;13.50;;;3.20;99.90;;;;;;5112398;28;20183;-53
2022/01/27 03:08:10;;;;;;;40.80;16.30;;;3.20;99.90;;;;;;5112355;28;20169;-50
2022/01/27 03:10:43;;;;;;;35.67;17.15;;;3.20;99.90;;;;;;5112222;28;20549;-52
2022/01/27 03:13:09;;;;;;;42.00;17.60;;;3.30;99.90;;;;;;5112054;28;20691;-51
2022/01/27 03:15:34;;;;;;;33.53;15.77;;;3.30;99.90;;;;;;5112135;28;20173;-48
2022/01/27 03:18:00;;;;;;;37.47;16.52;;;3.30;99.90;;;;;;5094566;28;20242;-53
2022/01/27 03:20:32;;;;;;;42.58;17.40;;;3.30;99.90;;;;;;5112119;28;20234;-52
2022/01/27 03:22:58;;;;;;;40.83;18.63;;;3.30;99.90;;;;;;5112638;28;20226;-52
2022/01/27 03:25:24;;;;;;;35.88;15.50;;;3.30;99.90;;;;;;5112008;28;20235;-53
2022/01/27 03:27:49;;;;;;;35.60;16.08;;;3.40;99.90;;;;;;5112362;28;20200;-51
2022/01/27 03:30:16;;;;;;;37.22;14.48;;;3.30;99.90;;;;;;5112001;28;20185;-53
2022/01/27 03:32:43;;;;;;;46.55;16.13;;;3.40;99.90;;;;;;5112308;28;20168;-53
2022/01/27 03:35:08;;;;;;;36.08;16.27;;;3.40;99.90;;;;;;5111946;28;20168;-53
2022/01/27 03:37:34;;;;;;;36.85;15.93;;;3.40;99.90;;;;;;5112035;28;20612;-52
2022/01/27 03:40:00;;;;;;;41.90;17.02;;;3.30;99.90;;;;;;5112364;28;20194;-52
2022/01/27 03:42:26;;;;;;;35.38;15.70;;;3.40;99.90;;;;;;5111904;28;20161;-52
2022/01/27 03:44:51;;;;;;;41.05;16.17;;;3.40;99.90;;;;;;5112080;28;20346;-53
2022/01/27 03:47:17;;;;;;;35.33;14.52;;;3.40;99.90;;;;;;5111858;28;20196;-53
2022/01/27 03:49:43;;;;;;;39.33;16.73;;;3.40;99.90;;;;;;5111826;28;20243;-52
2022/01/27 03:52:08;;;;;;;37.88;15.20;;;3.40;99.90;;;;;;5113458;28;20160;-53
2022/01/27 03:54:34;;;;;;;36.72;16.85;;;3.50;99.90;;;;;;5115550;28;20168;-52
2022/01/27 03:57:00;;;;;;;39.55;16.70;;;3.50;99.90;;;;;;5115723;28;20191;-52
2022/01/27 03:59:26;;;;;;;33.38;16.10;;;3.50;99.90;;;;;;5115306;28;20169;-53
2022/01/27 04:01:52;;;;;;;37.47;17.38;;;3.50;99.90;;;;;;5115230;28;20658;-47
2022/01/27 04:04:18;;;;;;;39.70;16.40;;;3.60;99.90;;;;;;5115420;28;20208;-48
2022/01/27 04:06:44;;;;;;;35.75;16.23;;;3.60;99.90;;;;;;5115173;28;20163;-48
2022/01/27 04:09:10;;;;;;;41.40;16.48;;;3.60;99.90;;;;;;5115409;28;20226;-48
2022/01/27 04:11:40;;;;;;;37.60;16.65;;;3.60;99.90;;;;;;5115050;28;20211;-47
2022/01/27 04:14:05;;;;;;;38.92;16.42;;;3.70;99.90;;;;;;5115019;28;20648;-48
2022/01/27 04:16:31;;;;;;;44.90;18.50;;;3.70;99.90;;;;;;5115245;28;20248;-46
2022/01/27 04:18:56;;;;;;;38.83;17.35;;;3.80;99.90;;;;;;5115536;28;20169;-48
2022/01/27 04:21:22;;;;;;;37.13;17.08;;;3.80;99.90;;;;;;5115133;28;20488;-48
2022/01/27 04:23:49;;;;;;;38.45;17.83;;;3.80;99.90;;;;;;5114716;28;20587;-47
2022/01/27 04:26:16;;;;;;;38.25;16.17;;;3.80;99.90;;;;;;5114801;28;20175;-47
2022/01/27 04:28:43;;;;;;;35.97;17.27;;;3.90;99.90;;;;;;5114861;28;20153;-47
2022/01/27 04:31:10;;;;;;;36.13;16.95;;;3.90;99.90;;;;;;5115013;28;20180;-48
2022/01/27 04:33:37;;;;;;;39.70;17.55;;;3.90;99.90;;;;;;5114679;28;20183;-49
2022/01/27 04:36:09;;;;;;;38.33;15.98;;;3.90;99.90;;;;;;5114798;28;20160;-47
2022/01/27 04:38:43;;;;;;;32.38;15.52;;;3.90;99.90;;;;;;5114624;28;20176;-48
2022/01/27 04:46:38;;;;;;;34.30;15.55;;;3.90;99.90;;;;;;5114521;28;20662;-48
2022/01/27 04:49:06;;;;;;;34.92;16.45;;;4.00;99.90;;;;;;5114675;28;20172;-48
2022/01/27 04:51:31;;;;;;;40.90;16.70;;;4.00;99.90;;;;;;5114599;28;20221;-46
2022/01/27 04:56:28;;;;;;;34.13;15.40;;;4.00;99.90;;;;;;5114537;28;20157;-48
2022/01/27 04:58:58;;;;;;;34.30;16.35;;;4.10;99.90;;;;;;5095999;28;20257;-47
2022/01/27 05:01:32;;;;;;;35.90;15.90;;;4.20;99.90;;;;;;5114226;28;20157;-48
2022/01/27 05:04:09;;;;;;;34.75;17.15;;;4.10;99.90;;;;;;5113830;28;20283;-48
2022/01/27 05:06:34;;;;;;;30.85;15.07;;;4.20;99.90;;;;;;5114360;28;20172;-48
2022/01/27 05:09:00;;;;;;;28.83;15.18;;;4.20;99.90;;;;;;5114445;28;20164;-46
2022/01/27 05:11:30;;;;;;;38.67;15.30;;;4.20;99.90;;;;;;5114127;28;20255;-47
2022/01/27 05:14:21;;;;;;;31.88;15.98;;;4.30;99.90;;;;;;5113867;28;20167;-49
2022/01/27 05:16:42;;;;;;;28.40;14.18;;;4.30;99.90;;;;;;5113172;28;20187;-47
2022/01/27 05:19:07;;;;;;;28.67;14.18;;;4.30;99.90;;;;;;5113765;28;20168;-46
2022/01/27 05:21:33;;;;;;;34.03;14.93;;;4.30;99.90;;;;;;5113717;28;20636;-47
2022/01/27 05:24:00;;;;;;;30.50;12.98;;;4.40;99.90;;;;;;5114182;28;20792;-48
2022/01/27 05:26:25;;;;;;;26.77;12.60;;;4.40;99.90;;;;;;5113920;28;20535;-46
2022/01/27 05:28:51;;;;;;;33.10;13.55;;;4.30;99.90;;;;;;5113780;28;20165;-46
2022/01/27 05:31:16;;;;;;;25.30;13.45;;;4.40;99.90;;;;;;5113535;28;20650;-46
2022/01/27 05:33:42;;;;;;;23.30;10.85;;;4.40;99.90;;;;;;5113509;28;20161;-47
2022/01/27 05:36:07;;;;;;;28.30;14.05;;;4.40;99.90;;;;;;5113656;28;20168;-46
2022/01/27 05:38:35;;;;;;;26.40;12.15;;;4.40;99.90;;;;;;5113601;28;20161;-46
2022/01/27 05:41:01;;;;;;;29.83;13.57;;;4.50;99.90;;;;;;5113534;28;20176;-45
2022/01/27 05:43:26;;;;;;;25.60;12.45;;;4.50;99.90;;;;;;5113386;28;20221;-47
2022/01/27 05:45:52;;;;;;;28.08;14.52;;;4.50;99.90;;;;;;5113252;28;20625;-47
2022/01/27 05:48:17;;;;;;;35.00;16.20;;;4.60;99.90;;;;;;5113121;28;20218;-47
2022/01/27 05:50:43;;;;;;;29.77;13.65;;;4.60;99.90;;;;;;5113218;28;20239;-46
2022/01/27 05:53:08;;;;;;;21.30;10.13;;;4.70;99.90;;;;;;5112975;28;20534;-45
2022/01/27 05:55:34;;;;;;;26.30;13.20;;;4.70;99.90;;;;;;5113048;28;20230;-47
2022/01/27 05:57:59;;;;;;;27.50;13.13;;;4.70;99.90;;;;;;5113322;28;20263;-45
2022/01/27 06:00:27;;;;;;;26.83;13.07;;;4.70;99.90;;;;;;5112849;28;20221;-46
2022/01/27 06:02:53;;;;;;;28.15;13.77;;;4.70;99.90;;;;;;5113169;28;20588;-45
2022/01/27 06:05:19;;;;;;;26.85;11.75;;;4.70;99.90;;;;;;5112732;28;20306;-45
2022/01/27 06:07:44;;;;;;;25.63;13.23;;;4.80;99.90;;;;;;5113118;28;20179;-47
2022/01/27 06:10:10;;;;;;;23.30;11.98;;;4.90;99.90;;;;;;5112956;28;20169;-48
2022/01/27 06:12:47;;;;;;;20.27;10.27;;;4.90;99.90;;;;;;5112979;28;20220;-47
2022/01/27 06:15:13;;;;;;;23.42;12.13;;;4.90;99.90;;;;;;5112231;28;20525;-46
2022/01/27 06:17:39;;;;;;;24.25;11.80;;;5.00;99.90;;;;;;5112668;28;20169;-45
2022/01/27 06:20:05;;;;;;;29.60;13.05;;;5.00;99.90;;;;;;5112917;28;20173;-46
2022/01/27 06:22:31;;;;;;;21.67;11.68;;;5.00;99.90;;;;;;5112943;28;20157;-45
2022/01/27 06:24:56;;;;;;;23.83;12.13;;;5.00;99.90;;;;;;5112953;28;20207;-46
2022/01/27 06:27:22;;;;;;;25.00;11.18;;;5.00;99.90;;;;;;5112625;28;20164;-46
2022/01/27 06:29:47;;;;;;;26.00;11.40;;;5.10;99.90;;;;;;5112478;28;20168;-46
2022/01/27 06:32:13;;;;;;;25.85;11.85;;;5.10;99.90;;;;;;5112543;28;20214;-45
2022/01/27 06:34:38;;;;;;;25.00;12.73;;;5.10;99.90;;;;;;5112560;28;20230;-45
2022/01/27 06:37:04;;;;;;;21.27;10.50;;;5.10;99.90;;;;;;5112421;28;20168;-46
2022/01/27 06:39:29;;;;;;;22.33;12.13;;;5.10;99.90;;;;;;5112781;28;20188;-46
2022/01/27 06:41:55;;;;;;;23.45;11.13;;;5.20;99.90;;;;;;5112576;28;20172;-46
2022/01/27 06:44:20;;;;;;;19.98;9.02;;;5.20;99.90;;;;;;5112334;28;20204;-46
2022/01/27 06:46:46;;;;;;;21.05;9.43;;;5.20;99.90;;;;;;5112396;28;20156;-48
2022/01/27 06:49:16;;;;;;;22.15;10.75;;;5.10;99.90;;;;;;5112364;28;20164;-46
2022/01/27 06:51:43;;;;;;;20.60;10.25;;;5.20;99.90;;;;;;5112461;28;20623;-46
2022/01/27 06:54:09;;;;;;;28.73;11.02;;;5.20;99.90;;;;;;5112549;28;20180;-49
2022/01/27 06:56:34;;;;;;;27.67;11.15;;;5.20;99.90;;;;;;5112507;28;20177;-45
2022/01/27 06:59:00;;;;;;;27.10;12.93;;;5.20;99.90;;;;;;5112524;28;20163;-45
2022/01/27 07:01:25;;;;;;;20.73;9.82;;;5.10;99.90;;;;;;5112126;28;20247;-46
2022/01/27 07:03:51;;;;;;;17.80;9.00;;;5.10;99.90;;;;;;5112042;28;20291;-46
2022/01/27 07:06:17;;;;;;;17.90;10.10;;;5.10;99.90;;;;;;5112212;28;20268;-46
2022/01/27 07:08:43;;;;;;;23.75;11.43;;;5.10;99.90;;;;;;5112426;28;20169;-46
2022/01/27 07:11:08;;;;;;;19.67;10.35;;;5.10;99.90;;;;;;5112048;28;20169;-45
2022/01/27 07:13:34;;;;;;;22.33;11.38;;;5.10;99.90;;;;;;5112216;28;20628;-45
2022/01/27 07:15:59;;;;;;;24.08;11.52;;;5.10;99.90;;;;;;5112662;28;20168;-45
2022/01/27 07:18:26;;;;;;;27.48;13.25;;;5.10;99.90;;;;;;5112382;28;20597;-46
2022/01/27 07:20:51;;;;;;;23.25;11.68;;;5.10;99.90;;;;;;5112217;28;20165;-46
2022/01/27 07:23:17;;;;;;;23.83;13.30;;;5.10;99.90;;;;;;5111965;28;20217;-47
2022/01/27 07:25:43;;;;;;;20.65;10.18;;;5.10;99.90;;;;;;5113107;28;20261;-46
2022/01/27 07:28:08;;;;;;;19.60;11.35;;;5.10;99.90;;;;;;5115899;28;20309;-45
2022/01/27 07:30:34;;;;;;;20.88;9.70;;;5.10;99.90;;;;;;5115818;28;20173;-45
2022/01/27 07:32:59;;;;;;;20.95;10.65;;;5.10;99.90;;;;;;5116071;28;20632;-47
2022/01/27 07:35:25;;;;;;;26.27;12.50;;;5.20;99.90;;;;;;5115938;28;20176;-48
2022/01/27 07:37:50;;;;;;;28.05;12.70;;;5.30;99.90;;;;;;5097465;28;20259;-45
2022/01/27 07:40:16;;;;;;;28.17;10.57;;;5.30;99.90;;;;;;5115688;28;20652;-46
2022/01/27 07:42:42;;;;;;;19.15;10.52;;;5.30;99.90;;;;;;5115568;28;20165;-46
2022/01/27 07:45:08;;;;;;;25.77;10.27;;;5.30;99.90;;;;;;5115595;28;20215;-45
2022/01/27 07:47:34;;;;;;;23.80;12.05;;;5.40;99.90;;;;;;5113613;28;20172;-46
2022/01/27 07:50:00;;;;;;;19.33;10.35;;;5.40;99.90;;;;;;5128152;27;20691;-46
2022/01/27 07:52:26;;;;;;;19.38;10.18;;;5.40;99.90;;;;;;5134877;27;20263;-45
2022/01/27 07:54:51;;;;;;;25.55;13.10;;;5.50;99.90;;;;;;5134729;27;20624;-48
2022/01/27 07:57:17;;;;;;;22.70;10.90;;;5.50;99.90;;;;;;5134700;27;20160;-50
2022/01/27 07:59:44;;;;;;;22.50;10.15;;;5.60;99.90;;;;;;5134652;27;20160;-45
2022/01/27 08:02:09;;;;;;;22.15;11.18;;;5.60;99.90;;;;;;5134455;27;20556;-47
2022/01/27 08:04:35;;;;;;;19.20;9.88;;;5.60;99.90;;;;;;5134594;27;20210;-43
2022/01/27 08:07:02;;;;;;;20.95;10.82;;;5.60;99.90;;;;;;5135102;27;20525;-44
2022/01/27 08:09:28;;;;;;;22.83;11.65;;;5.70;99.90;;;;;;5134846;27;20156;-42
2022/01/27 08:11:53;;;;;;;24.77;12.70;;;5.70;99.90;;;;;;5134378;27;20210;-46
2022/01/27 08:14:19;;;;;;;22.00;12.57;;;5.70;99.90;;;;;;5134278;27;20178;-51
2022/01/27 08:16:45;;;;;;;30.40;13.88;;;5.70;99.90;;;;;;5134626;27;20209;-46
2022/01/27 08:19:10;;;;;;;30.75;14.77;;;5.70;99.90;;;;;;5134577;27;20164;-43
2022/01/27 08:21:36;;;;;;;28.05;12.65;;;5.70;99.90;;;;;;5134282;27;20164;-46
2022/01/27 08:24:01;;;;;;;31.45;14.48;;;5.70;99.90;;;;;;5134441;27;20195;-44
2022/01/27 08:26:42;;;;;;;28.50;13.93;;;5.70;99.90;;;;;;5134475;27;20670;-44
2022/01/27 08:29:17;;;;;;;27.40;11.80;;;5.70;99.90;;;;;;5134373;27;20171;-45
2022/01/27 08:31:55;;;;;;;23.25;11.18;;;5.70;99.90;;;;;;5134100;27;20178;-44
2022/01/27 08:34:37;;;;;;;21.27;10.52;;;5.70;99.90;;;;;;5134175;27;20172;-46
2022/01/27 08:37:07;;;;;;;26.98;13.68;;;5.70;99.90;;;;;;5133309;27;20156;-45
2022/01/27 08:39:33;;;;;;;25.67;11.60;;;5.70;99.90;;;;;;5134078;27;20179;-44
2022/01/27 08:41:59;;;;;;;20.85;10.98;;;5.70;99.90;;;;;;5134082;27;20180;-46
2022/01/27 08:44:25;;;;;;;28.77;13.70;;;5.70;99.90;;;;;;5133613;27;20246;-45
2022/01/27 08:46:51;;;;;;;27.77;14.23;;;5.80;99.90;;;;;;5133852;27;20168;-45
2022/01/27 08:49:20;;;;;;;28.80;12.88;;;5.80;99.90;;;;;;5133656;27;20653;-45
2022/01/27 08:51:46;;;;;;;23.95;12.48;;;5.80;99.90;;;;;;5133656;27;20179;-48
2022/01/27 08:54:11;;;;;;;26.27;13.45;;;5.80;99.90;;;;;;5133550;27;20162;-49
2022/01/27 08:56:37;;;;;;;26.92;13.27;;;5.80;99.90;;;;;;5133630;27;20583;-50
2022/01/27 08:59:02;;;;;;;28.40;12.48;;;5.80;99.90;;;;;;5133582;27;20172;-49
2022/01/27 09:01:28;;;;;;;25.10;12.00;;;5.80;99.90;;;;;;5133703;27;20180;-50
2022/01/27 09:03:54;;;;;;;27.98;14.20;;;5.80;99.90;;;;;;5133585;27;20195;-50
2022/01/27 09:06:20;;;;;;;22.27;11.77;;;5.70;99.90;;;;;;5133530;27;20172;-49
2022/01/27 09:08:47;;;;;;;30.77;11.05;;;5.70;99.90;;;;;;5133470;27;20168;-49
2022/01/27 09:11:12;;;;;;;37.00;15.05;;;5.70;99.90;;;;;;5133161;27;20193;-49
2022/01/27 09:13:38;;;;;;;27.60;13.70;;;5.70;99.90;;;;;;5133178;27;20168;-50
2022/01/27 09:16:05;;;;;;;29.02;14.00;;;5.70;99.90;;;;;;5133295;27;20182;-50
2022/01/27 09:18:32;;;;;;;28.10;12.02;;;5.70;99.90;;;;;;5133225;27;20165;-49
2022/01/27 09:21:00;;;;;;;26.38;13.15;;;5.60;99.90;;;;;;5133656;27;20171;-50
2022/01/27 09:23:26;;;;;;;33.55;14.85;;;5.60;99.90;;;;;;5133269;27;20551;-49
2022/01/27 09:25:56;;;;;;;25.45;11.40;;;5.60;99.90;;;;;;5133030;27;20176;-50
2022/01/27 09:28:21;;;;;;;24.70;13.13;;;5.70;99.90;;;;;;5133024;27;20224;-50
2022/01/27 09:30:47;;;;;;;25.33;12.43;;;5.60;99.90;;;;;;5133188;27;20250;-50
2022/01/27 09:33:13;;;;;;;28.42;14.52;;;5.70;99.90;;;;;;5132800;27;20164;-52
2022/01/27 09:35:39;;;;;;;26.85;13.73;;;5.60;99.90;;;;;;5133017;27;20175;-51
2022/01/27 09:38:05;;;;;;;21.35;11.55;;;5.70;99.90;;;;;;5132731;27;20172;-50
2022/01/27 09:40:34;;;;;;;23.17;12.45;;;5.60;99.90;;;;;;5133050;27;20251;-50
2022/01/27 09:43:00;;;;;;;28.25;13.30;;;5.70;99.90;;;;;;5132985;27;20152;-52
2022/01/27 09:45:28;;;;;;;29.00;13.30;;;5.70;99.90;;;;;;5133036;27;20253;-50
2022/01/27 09:48:04;;;;;;;32.13;14.38;;;5.70;99.90;;;;;;5132550;27;20573;-50
2022/01/27 09:51:21;;;;;;;25.70;14.05;;;5.70;99.90;;;;;;5133045;27;20182;-50
2022/01/27 09:53:35;;;;;;;24.35;12.65;;;5.70;99.90;;;;;;5132302;27;20178;-50
2022/01/27 09:56:01;;;;;;;20.75;10.25;;;5.60;99.90;;;;;;5132711;27;20168;-50
2022/01/27 09:58:27;;;;;;;26.70;12.73;;;5.60;99.90;;;;;;5132607;27;20164;-50
2022/01/27 10:00:53;;;;;;;24.13;12.48;;;5.70;99.90;;;;;;5115131;27;20198;-50
2022/01/27 10:03:18;;;;;;;23.52;9.85;;;5.80;99.90;;;;;;5111635;28;20650;-51
2022/01/27 10:05:44;;;;;;;29.50;14.45;;;5.70;99.90;;;;;;5111662;28;20196;-50
2022/01/27 10:08:18;;;;;;;28.30;12.98;;;5.80;99.90;;;;;;5111937;28;20558;-51
2022/01/27 10:10:47;;;;;;;28.30;13.77;;;5.80;99.90;;;;;;5111646;28;20574;-49
2022/01/27 10:13:35;;;;;;;29.23;14.23;;;5.80;99.90;;;;;;5111215;28;20312;-50
2022/01/27 10:16:01;;;;;;;25.92;11.50;;;5.80;99.90;;;;;;5112033;28;20183;-50
2022/01/27 10:18:34;;;;;;;26.23;13.70;;;5.80;99.90;;;;;;5112002;28;20200;-49
2022/01/27 10:21:09;;;;;;;28.10;12.93;;;5.80;99.90;;;;;;5112033;28;20211;-52
2022/01/27 10:23:38;;;;;;;20.88;11.55;;;5.90;99.90;;;;;;5111528;28;20244;-49
2022/01/27 10:26:14;;;;;;;27.50;14.75;;;5.90;99.90;;;;;;5111403;28;20169;-48
2022/01/27 10:31:19;;;;;;;17.13;10.05;;;6.00;99.90;;;;;;5111590;28;20225;-50
2022/01/27 10:33:52;;;;;;;24.73;13.45;;;6.00;99.90;;;;;;5111376;28;20160;-49
2022/01/27 10:36:20;;;;;;;24.73;12.52;;;6.00;99.90;;;;;;5111324;28;20168;-51
2022/01/27 10:38:48;;;;;;;24.15;12.82;;;6.00;99.90;;;;;;5111249;28;20179;-49
2022/01/27 10:41:14;;;;;;;21.83;10.10;;;6.00;99.90;;;;;;5111164;28;20176;-52
2022/01/27 10:43:40;;;;;;;24.48;13.13;;;6.10;99.90;;;;;;5111163;28;20575;-49
2022/01/27 10:48:44;;;;;;;21.60;11.18;;;6.10;99.90;;;;;;5111436;28;20711;-49
2022/01/27 10:51:22;;;;;;;23.60;11.85;;;6.10;99.90;;;;;;5111424;28;20211;-49
2022/01/27 10:53:57;;;;;;;21.50;10.07;;;6.20;99.90;;;;;;5111435;28;20176;-50
2022/01/27 10:56:28;;;;;;;25.75;12.77;;;6.20;99.90;;;;;;5111063;28;20163;-49
2022/01/27 10:58:55;;;;;;;21.10;9.98;;;6.20;99.90;;;;;;5110966;28;20897;-50
2022/01/27 11:01:32;;;;;;;20.35;8.88;;;6.10;99.90;;;;;;5112928;28;20229;-49
2022/01/27 11:04:01;;;;;;;17.67;10.38;;;6.10;99.90;;;;;;5115464;28;20191;-49
2022/01/27 11:06:30;;;;;;;21.90;10.00;;;6.10;99.90;;;;;;5115267;28;20206;-48
2022/01/27 11:08:58;;;;;;;20.67;10.90;;;6.10;99.90;;;;;;5115657;28;20165;-48
2022/01/27 11:11:26;;;;;;;15.30;8.43;;;6.20;99.90;;;;;;5079916;28;20216;-49
2022/01/27 11:13:53;;;;;;;19.40;11.25;;;6.20;99.90;;;;;;5115117;28;20206;-49
2022/01/27 11:16:24;;;;;;;23.15;12.00;;;6.30;99.90;;;;;;5115307;28;20200;-49
2022/01/27 11:18:50;;;;;;;21.77;11.23;;;6.30;99.90;;;;;;5115148;28;20180;-49
2022/01/27 11:21:32;;;;;;;18.52;10.73;;;6.30;99.90;;;;;;5114719;28;20165;-49
2022/01/27 11:24:07;;;;;;;18.35;11.02;;;6.40;99.90;;;;;;5115304;28;20268;-49
2022/01/27 11:26:37;;;;;;;15.35;8.88;;;6.40;99.90;;;;;;5114752;28;20160;-50
2022/01/27 11:29:05;;;;;;;19.17;10.85;;;6.40;99.90;;;;;;5114740;28;20180;-49
2022/01/27 11:31:49;;;;;;;20.77;11.57;;;6.40;99.90;;;;;;5114701;28;20164;-48
2022/01/27 11:34:14;;;;;;;20.15;10.15;;;6.40;99.90;;;;;;5114557;28;20171;-49
2022/01/27 11:37:01;;;;;;;19.50;9.43;;;6.40;99.90;;;;;;5114524;28;20177;-50
2022/01/27 11:39:50;;;;;;;19.80;10.30;;;6.50;99.90;;;;;;5114669;28;20168;-48
2022/01/27 11:42:35;;;;;;;17.27;9.38;;;6.50;99.90;;;;;;5114795;28;20263;-49
2022/01/27 11:45:34;;;;;;;15.07;9.50;;;6.50;99.90;;;;;;5114601;28;20710;-49
2022/01/27 11:48:08;;;;;;;14.90;8.55;;;6.50;99.90;;;;;;5114949;28;20251;-52
2022/01/27 11:50:56;;;;;;;16.20;9.07;;;6.40;99.90;;;;;;5114509;28;20168;-49
2022/01/27 11:53:35;;;;;;;17.73;10.43;;;6.50;99.90;;;;;;5114161;28;20301;-49
2022/01/27 11:56:35;;;;;;;17.17;9.82;;;6.50;99.90;;;;;;5114267;28;20226;-49
2022/01/27 11:59:04;;;;;;;16.65;9.27;;;6.50;99.90;;;;;;5114299;28;20243;-49
2022/01/27 12:01:35;;;;;;;10.57;6.30;;;6.50;99.90;;;;;;5112606;28;20184;-51
2022/01/27 12:04:04;;;;;;;15.30;9.52;;;6.50;99.90;;;;;;5114285;28;20655;-49
2022/01/27 12:06:33;;;;;;;14.15;9.13;;;6.50;99.90;;;;;;5114303;28;20257;-49
2022/01/27 12:09:17;;;;;;;12.63;7.53;;;6.60;99.90;;;;;;5114501;28;20175;-49
2022/01/27 12:11:53;;;;;;;10.00;7.05;;;6.50;99.90;;;;;;5113183;28;20617;-49
2022/01/27 12:14:25;;;;;;;11.43;7.05;;;6.50;99.90;;;;;;5113767;28;20195;-50
2022/01/27 12:17:10;;;;;;;15.80;9.77;;;6.50;99.90;;;;;;5114012;28;20168;-50
2022/01/27 12:19:54;;;;;;;15.77;9.18;;;6.60;99.90;;;;;;5114040;28;20211;-50
2022/01/27 12:22:32;;;;;;;8.43;5.20;;;6.60;99.90;;;;;;5114018;28;20256;-50
2022/01/27 12:25:03;;;;;;;12.35;8.27;;;6.50;99.90;;;;;;5113817;28;20243;-50
2022/01/27 12:27:30;;;;;;;12.32;8.68;;;6.50;99.90;;;;;;5113947;28;20161;-48
2022/01/27 12:29:57;;;;;;;13.63;7.70;;;6.60;99.90;;;;;;5113916;28;20172;-50
2022/01/27 12:32:29;;;;;;;12.27;7.07;;;6.60;99.90;;;;;;5113776;28;20165;-49
2022/01/27 12:35:21;;;;;;;13.55;8.50;;;6.50;99.90;;;;;;5095332;28;20291;-50
2022/01/27 12:37:48;;;;;;;11.27;7.15;;;6.50;99.90;;;;;;5108557;28;20279;-49
2022/01/27 12:40:33;;;;;;;14.48;8.23;;;6.60;99.90;;;;;;5113351;28;20572;-50
2022/01/27 12:43:02;;;;;;;11.80;7.07;;;6.60;99.90;;;;;;5113853;28;20287;-50
2022/01/27 12:45:33;;;;;;;13.98;7.60;;;6.60;99.90;;;;;;5113737;28;20212;-49
2022/01/27 12:48:04;;;;;;;12.18;7.53;;;6.60;99.90;;;;;;5113435;28;20157;-52
2022/01/27 12:50:30;;;;;;;12.13;7.53;;;6.60;99.90;;;;;;5113419;28;20172;-51
2022/01/27 12:53:00;;;;;;;11.65;7.80;;;6.60;99.90;;;;;;5113083;28;20242;-49
2022/01/27 12:55:34;;;;;;;10.20;6.35;;;6.60;99.90;;;;;;5112734;28;20707;-50
2022/01/27 12:58:05;;;;;;;11.75;7.07;;;6.70;99.90;;;;;;5113211;28;20575;-50
2022/01/27 13:00:43;;;;;;;12.15;6.90;;;6.70;99.90;;;;;;5113034;28;20165;-49
2022/01/27 13:03:09;;;;;;;11.30;7.60;;;6.60;99.90;;;;;;5112861;28;20176;-50
2022/01/27 13:05:37;;;;;;;10.10;6.47;;;6.70;99.90;;;;;;5112777;28;20553;-49
2022/01/27 13:08:11;;;;;;;8.18;5.50;;;6.70;99.90;;;;;;5112698;28;20212;-50
2022/01/27 13:10:39;;;;;;;11.75;6.63;;;6.70;99.90;;;;;;5113064;28;20518;-50
2022/01/27 13:13:25;;;;;;;13.10;7.57;;;6.70;99.90;;;;;;5112522;28;20216;-50
2022/01/27 13:16:04;;;;;;;11.35;7.38;;;6.80;99.90;;;;;;5112717;28;20160;-52
2022/01/27 13:18:39;;;;;;;12.38;6.68;;;6.80;99.90;;;;;;5112840;28;20206;-51
2022/01/27 13:21:07;;;;;;;11.68;6.40;;;6.80;99.90;;;;;;5112799;28;20172;-51
2022/01/27 13:23:38;;;;;;;9.43;6.53;;;6.80;99.90;;;;;;5112420;28;20173;-50
2022/01/27 13:26:07;;;;;;;12.68;7.03;;;6.80;99.90;;;;;;5112380;28;20168;-49
2022/01/27 13:28:37;;;;;;;12.45;7.18;;;6.80;99.90;;;;;;5112657;28;20180;-52
2022/01/27 13:31:14;;;;;;;10.27;6.43;;;6.80;99.90;;;;;;5112330;28;20175;-50
2022/01/27 13:33:40;;;;;;;9.43;6.25;;;6.80;99.90;;;;;;5112551;28;20172;-51
2022/01/27 13:36:09;;;;;;;8.82;4.93;;;6.80;99.90;;;;;;5112154;28;20238;-50
2022/01/27 13:38:48;;;;;;;9.35;5.65;;;6.80;99.90;;;;;;5112235;28;20211;-50